.
WxDataArchive / Data Records for 2009-02-28
2009-02-27 February 2009 2009-03-01

Data Records for Saturday, 28 February 2009

Time	Temp	Chill	HIndex	Humid	Dewpt	 Wind 	HiWind	WindDir	Rain 	Barom 
-----	----	-----	------	-----	-----	------	------	-------	-----	----- 
00:00	28.5	28.5	28.5	72	20.6	2	12	112	0.00	30.315 
00:05	28.2	28.2	28.2	72	20.4	2	12	90	0.00	30.317 
00:10	28.1	28.1	28.1	71	19.9	2	7	90	0.00	30.319 
00:15	27.9	27.9	27.9	72	20.1	2	7	90	0.00	30.316 
00:20	27.6	27.6	27.6	72	19.8	3	10	90	0.00	30.317 
00:25	27.5	27.5	27.5	71	19.4	2	7	90	0.00	30.316 
00:30	27.3	27.3	27.3	70	18.8	2	5	45	0.00	30.321 
00:35	27.2	27.2	27.2	70	18.7	2	7	90	0.00	30.322 
00:40	27.0	27.0	27.0	69	18.2	3	9	112	0.00	30.323 
00:45	27.0	27.0	27.0	69	18.2	2	7	90	0.00	30.322 
00:50	27.2	27.2	27.2	69	18.4	3	10	112	0.00	30.324 
00:55	27.2	27.2	27.2	69	18.4	2	6	45	0.00	30.326 
01:00	27.2	27.2	27.2	69	18.4	1	4	22	0.00	30.326 
01:05	27.2	27.2	27.2	70	18.7	1	4	90	0.00	30.325 
01:10	27.0	27.0	27.0	70	18.5	2	5	112	0.00	30.324 
01:15	27.2	27.2	27.2	72	19.4	2	6	112	0.00	30.323 
01:20	27.0	27.0	27.0	73	19.5	3	13	112	0.00	30.319 
01:25	27.0	27.0	27.0	74	19.8	3	7	45	0.00	30.319 
01:30	26.7	22.0	26.7	74	19.5	4	15	90	0.00	30.320 
01:35	26.6	19.8	26.6	75	19.8	6	15	112	0.00	30.320 
01:40	26.3	20.4	26.3	75	19.5	5	14	112	0.00	30.325 
01:45	26.0	18.3	26.0	74	18.9	7	13	112	0.00	30.327 
01:50	26.0	26.0	26.0	74	18.9	3	10	112	0.00	30.327 
01:55	25.8	25.8	25.8	74	18.7	3	9	90	0.00	30.328 
02:00	25.8	25.8	25.8	75	19.0	2	7	112	0.00	30.331 
02:05	25.7	25.7	25.7	75	18.9	3	9	112	0.00	30.335 
02:10	25.6	20.7	25.6	74	18.5	4	14	45	0.00	30.340 
02:15	25.4	19.3	25.4	75	18.6	5	12	112	0.00	30.343 
02:20	25.3	20.3	25.3	74	18.2	4	13	90	0.00	30.342 
02:25	25.0	25.0	25.0	73	17.6	3	7	45	0.00	30.344 
02:30	24.8	24.8	24.8	73	17.4	2	6	45	0.00	30.343 
02:35	24.7	24.7	24.7	74	17.6	2	7	90	0.00	30.344 
02:40	24.5	24.5	24.5	73	17.1	3	10	22	0.00	30.344 
02:45	24.4	24.4	24.4	73	17.0	3	9	90	0.00	30.346 
02:50	24.2	24.2	24.2	73	16.8	2	8	112	0.00	30.349 
02:55	23.9	23.9	23.9	73	16.5	3	10	112	0.00	30.354 
03:00	23.6	23.6	23.6	73	16.2	3	10	90	0.00	30.359 
03:05	23.5	18.3	23.5	71	15.5	4	12	90	0.00	30.362 
03:10	23.2	16.7	23.2	71	15.2	5	10	112	0.00	30.364 
03:15	23.0	23.0	23.0	71	15.0	3	7	90	0.00	30.364 
03:20	23.0	23.0	23.0	71	15.0	3	12	90	0.00	30.365 
03:25	23.0	23.0	23.0	72	15.3	2	10	90	0.00	30.367 
03:30	23.0	23.0	23.0	72	15.3	3	8	112	0.00	30.376 
03:35	23.0	23.0	23.0	72	15.3	2	7	112	0.00	30.380 
03:40	23.0	23.0	23.0	72	15.3	2	10	90	0.00	30.384 
03:45	22.9	22.9	22.9	72	15.2	2	10	112	0.00	30.393 
03:50	22.9	22.9	22.9	72	15.2	2	7	112	0.00	30.396 
03:55	22.7	22.7	22.7	72	15.1	1	5	90	0.00	30.396 
04:00	22.7	22.7	22.7	72	15.1	1	6	112	0.00	30.396 
04:05	22.7	22.7	22.7	72	15.1	1	4	45	0.00	30.396 
04:10	22.9	22.9	22.9	73	15.6	1	4	90	0.00	30.394 
04:15	22.9	22.9	22.9	74	15.9	1	4	90	0.00	30.394 
04:20	22.9	22.9	22.9	74	15.9	2	7	45	0.00	30.390 
04:25	22.9	22.9	22.9	74	15.9	2	5	45	0.00	30.384 
04:30	22.9	22.9	22.9	75	16.2	2	6	45	0.00	30.379 
04:35	22.7	22.7	22.7	76	16.3	2	6	112	0.00	30.377 
04:40	22.7	22.7	22.7	76	16.3	2	9	90	0.00	30.377 
04:45	22.7	22.7	22.7	77	16.6	2	5	45	0.00	30.374 
04:50	22.5	22.5	22.5	77	16.4	2	7	112	0.00	30.377 
04:55	22.5	22.5	22.5	77	16.4	1	4	45	0.00	30.370 
05:00	22.5	22.5	22.5	78	16.7	2	6	45	0.00	30.366 
05:05	22.5	22.5	22.5	78	16.7	1	5	112	0.00	30.365 
05:10	22.5	22.5	22.5	78	16.7	2	7	45	0.00	30.364 
05:15	22.5	22.5	22.5	78	16.7	2	7	45	0.00	30.364 
05:20	22.5	22.5	22.5	79	17.0	2	9	112	0.00	30.364 
05:25	22.5	22.5	22.5	79	17.0	3	9	22	0.00	30.364 
05:30	22.5	22.5	22.5	79	17.0	1	4	90	0.00	30.364 
05:35	22.5	22.5	22.5	79	17.0	2	6	112	0.00	30.364 
05:40	22.4	15.8	22.4	78	16.6	5	14	112	0.00	30.363 
05:45	22.1	22.1	22.1	78	16.3	3	7	90	0.00	30.363 
05:50	21.9	21.9	21.9	78	16.1	3	9	112	0.00	30.367 
05:55	21.8	16.3	21.8	77	15.7	4	10	112	0.00	30.370 
06:00	21.6	21.6	21.6	77	15.5	3	10	90	0.00	30.367 
06:05	21.3	21.3	21.3	77	15.2	3	9	112	0.00	30.368 
06:10	21.3	21.3	21.3	77	15.2	3	9	112	0.00	30.367 
06:15	21.1	21.1	21.1	77	15.0	3	12	112	0.00	30.368 
06:20	21.0	21.0	21.0	77	14.9	3	10	90	0.00	30.368 
06:25	21.0	15.4	21.0	76	14.6	4	13	90	0.00	30.367 
06:30	20.8	20.8	20.8	75	14.1	3	9	90	0.00	30.368 
06:35	20.6	20.6	20.6	75	14.0	3	10	112	0.00	30.367 
06:40	20.6	20.6	20.6	75	14.0	3	11	22	0.00	30.363 
06:45	20.6	14.9	20.6	74	13.7	4	12	112	0.00	30.362 
06:50	20.5	13.6	20.5	74	13.6	5	12	112	0.00	30.362 
06:55	20.5	14.8	20.5	74	13.6	4	14	112	0.00	30.365 
07:00	20.5	20.5	20.5	73	13.2	2	9	112	0.00	30.367 
07:05	20.5	14.8	20.5	72	12.9	4	13	112	0.00	30.368 
07:10	20.3	13.3	20.3	71	12.4	5	13	112	0.00	30.369 
07:15	20.2	20.2	20.2	71	12.3	3	11	112	0.00	30.369 
07:20	20.2	20.2	20.2	71	12.3	3	11	112	0.00	30.371 
07:25	20.0	14.2	20.0	70	11.8	4	17	112	0.00	30.376 
07:30	19.7	13.9	19.7	70	11.5	4	12	112	0.00	30.370 
07:35	19.5	13.6	19.5	71	11.7	4	14	112	0.00	30.369 
07:40	19.4	19.4	19.4	71	11.6	3	9	112	0.00	30.372 
07:45	19.4	19.4	19.4	71	11.6	3	11	68	0.00	30.381 
07:50	19.2	19.2	19.2	71	11.4	3	9	112	0.00	30.378 
07:55	19.2	19.2	19.2	72	11.7	3	10	112	0.00	30.380 
08:00	19.4	19.4	19.4	72	11.9	2	5	112	0.00	30.384 
08:05	19.5	13.6	19.5	71	11.7	4	11	112	0.00	30.385 
08:10	19.5	13.6	19.5	71	11.7	4	12	112	0.00	30.386 
08:15	19.7	13.9	19.7	71	11.8	4	12	90	0.00	30.391 
08:20	19.7	12.6	19.7	70	11.5	5	16	90	0.00	30.392 
08:25	19.9	12.9	19.9	70	11.7	5	16	90	0.00	30.399 
08:30	19.9	12.9	19.9	70	11.7	5	13	112	0.00	30.399 
08:35	20.0	20.0	20.0	71	12.1	3	10	45	0.00	30.395 
08:40	20.2	13.2	20.2	70	12.0	5	12	112	0.00	30.395 
08:45	20.2	14.4	20.2	70	12.0	4	13	90	0.00	30.397 
08:50	20.3	13.3	20.3	71	12.4	5	12	112	0.00	30.395 
08:55	20.3	14.6	20.3	71	12.4	4	11	112	0.00	30.390 
09:00	20.3	20.3	20.3	71	12.4	2	7	90	0.00	30.395 
09:05	20.3	13.3	20.3	69	11.8	5	12	68	0.00	30.398 
09:10	20.2	20.2	20.2	69	11.7	3	10	90	0.00	30.398 
09:15	20.3	20.3	20.3	69	11.8	3	6	112	0.00	30.399 
09:20	20.5	13.6	20.5	69	12.0	5	11	112	0.00	30.400 
09:25	20.5	14.8	20.5	69	12.0	4	11	90	0.00	30.400 
09:30	20.6	20.6	20.6	69	12.1	3	9	90	0.00	30.400 
09:35	20.6	13.7	20.6	69	12.1	5	13	112	0.00	30.399 
09:40	20.8	20.8	20.8	69	12.3	2	7	112	0.00	30.399 
09:45	20.8	13.9	20.8	68	11.9	5	12	112	0.00	30.398 
09:50	20.6	20.6	20.6	68	11.7	3	7	22	0.00	30.399 
09:55	20.6	20.6	20.6	68	11.7	3	7	45	0.00	30.399 
10:00	20.8	20.8	20.8	68	11.9	3	12	112	0.00	30.399 
10:05	21.0	15.4	21.0	68	12.1	4	10	112	0.00	30.397 
10:10	21.0	21.0	21.0	69	12.5	3	12	90	0.00	30.394 
10:15	21.0	21.0	21.0	69	12.5	3	11	90	0.00	30.395 
10:20	21.0	15.4	21.0	68	12.1	4	9	112	0.00	30.398 
10:25	20.8	13.9	20.8	69	12.3	5	12	112	0.00	30.399 
10:30	21.0	21.0	21.0	69	12.5	3	12	112	0.00	30.400 
10:35	21.0	12.2	21.0	68	12.1	7	18	112	0.00	30.399 
10:40	21.1	15.5	21.1	68	12.2	4	11	112	0.00	30.395 
10:45	21.3	15.7	21.3	68	12.4	4	11	90	0.00	30.391 
10:50	21.3	15.7	21.3	68	12.4	4	11	112	0.00	30.386 
10:55	21.6	16.1	21.6	69	13.0	4	10	90	0.00	30.383 
11:00	21.9	21.9	21.9	68	13.0	3	10	112	0.00	30.381 
11:05	21.8	15.1	21.8	67	12.6	5	14	112	0.00	30.384 
11:10	21.9	16.4	21.9	67	12.7	4	12	112	0.00	30.382 
11:15	21.9	15.2	21.9	67	12.7	5	12	112	0.00	30.384 
11:20	21.9	16.4	21.9	67	12.7	4	10	112	0.00	30.382 
11:25	22.1	22.1	22.1	67	12.8	3	9	112	0.00	30.376 
11:30	22.2	16.8	22.2	67	12.9	4	10	112	0.00	30.371 
11:35	22.4	22.4	22.4	67	13.1	3	7	45	0.00	30.369 
11:40	22.4	15.8	22.4	67	13.1	5	13	112	0.00	30.369 
11:45	22.7	17.3	22.7	67	13.4	4	12	90	0.00	30.362 
11:50	23.0	16.5	23.0	66	13.4	5	10	112	0.00	30.358 
11:55	23.2	23.2	23.2	65	13.2	3	10	112	0.00	30.356 
12:00	23.2	16.7	23.2	65	13.2	5	12	112	0.00	30.351 
12:05	23.3	16.9	23.3	65	13.3	5	15	90	0.00	30.350 
12:10	23.3	15.9	23.3	64	13.0	6	15	112	0.00	30.348 
12:15	23.5	17.1	23.5	66	13.8	5	13	112	0.00	30.344 
12:20	23.6	15.4	23.6	63	12.9	7	13	112	0.00	30.345 
12:25	23.6	16.2	23.6	65	13.6	6	13	112	0.00	30.341 
12:30	23.8	18.6	23.8	65	13.8	4	10	90	0.00	30.339 
12:35	23.9	16.6	23.9	65	13.9	6	13	112	0.00	30.345 
12:40	23.8	15.6	23.8	65	13.8	7	15	112	0.00	30.342 
12:45	23.8	16.5	23.8	64	13.4	6	14	90	0.00	30.350 
12:50	24.5	17.3	24.5	63	13.7	6	15	112	0.00	30.352 
12:55	24.5	18.3	24.5	62	13.4	5	14	90	0.00	30.352 
13:00	24.2	16.9	24.2	64	13.8	6	13	90	0.00	30.358 
13:05	24.7	17.5	24.7	65	14.6	6	12	112	0.00	30.355 
13:10	24.8	24.8	24.8	62	13.7	3	7	112	0.00	30.356 
13:15	25.3	20.3	25.3	65	15.2	4	10	90	0.00	30.361 
13:20	26.0	20.0	26.0	63	15.2	5	12	112	0.00	30.362 
13:25	26.1	19.2	26.1	61	14.5	6	11	112	0.00	30.361 
13:30	26.4	21.6	26.4	62	15.2	4	10	90	0.00	30.359 
13:35	27.0	22.3	27.0	61	15.4	4	12	112	0.00	30.355 
13:40	26.9	26.9	26.9	60	14.9	3	7	112	0.00	30.361 
13:45	26.3	26.3	26.3	63	15.4	3	7	112	0.00	30.356 
13:50	26.3	20.4	26.3	62	15.1	5	11	112	0.00	30.353 
13:55	26.3	20.4	26.3	62	15.1	5	12	90	0.00	30.351 
14:00	26.1	19.2	26.1	62	14.9	6	12	112	0.00	30.351 
14:05	26.0	21.1	26.0	62	14.8	4	10	112	0.00	30.353 
14:10	26.3	26.3	26.3	64	15.8	3	9	112	0.00	30.352 
14:15	26.6	26.6	26.6	64	16.1	2	11	90	0.00	30.352 
14:20	26.9	26.9	26.9	64	16.4	3	9	90	0.00	30.352 
14:25	26.7	22.0	26.7	62	15.5	4	10	112	0.00	30.349 
14:30	26.9	21.1	26.9	65	16.7	5	12	112	0.00	30.341 
14:35	27.2	27.2	27.2	65	17.0	3	9	112	0.00	30.339 
14:40	27.6	27.6	27.6	65	17.4	2	6	45	0.00	30.336 
14:45	28.1	28.1	28.1	63	17.2	2	8	0	0.00	30.331 
14:50	28.2	28.2	28.2	62	16.9	2	6	90	0.00	30.329 
14:55	28.5	28.5	28.5	62	17.2	2	6	90	0.00	30.329 
15:00	28.7	28.7	28.7	60	16.6	2	6	22	0.00	30.324 
15:05	28.5	24.0	28.5	60	16.4	4	10	112	0.00	30.321 
15:10	28.2	28.2	28.2	62	16.9	3	9	112	0.00	30.321 
15:15	28.4	28.4	28.4	61	16.7	2	6	45	0.00	30.318 
15:20	28.5	28.5	28.5	60	16.4	3	7	112	0.00	30.319 
15:25	28.8	28.8	28.8	58	15.9	2	6	45	0.00	30.317 
15:30	28.8	28.8	28.8	58	15.9	2	9	45	0.00	30.312 
15:35	29.1	29.1	29.1	57	15.8	3	6	68	0.00	30.313 
15:40	28.8	28.8	28.8	57	15.5	3	6	90	0.00	30.313 
15:45	28.7	28.7	28.7	59	16.2	3	7	112	0.00	30.313 
15:50	28.7	28.7	28.7	58	15.8	2	6	112	0.00	30.312 
15:55	28.7	28.7	28.7	59	16.2	3	8	22	0.00	30.309 
16:00	28.4	23.9	28.4	59	15.9	4	10	112	0.00	30.310 
16:05	28.4	28.4	28.4	59	15.9	2	7	112	0.00	30.310 
16:10	28.5	28.5	28.5	59	16.0	3	9	112	0.00	30.307 
16:15	28.7	28.7	28.7	60	16.6	2	8	112	0.00	30.307 
16:20	28.5	24.0	28.5	60	16.4	4	9	90	0.00	30.306 
16:25	28.4	28.4	28.4	60	16.3	3	12	112	0.00	30.306 
16:30	28.2	23.7	28.2	62	16.9	4	8	112	0.00	30.306 
16:35	28.2	28.2	28.2	62	16.9	2	6	68	0.00	30.305 
16:40	27.8	22.1	27.8	61	16.1	5	13	112	0.00	30.305 
16:45	27.5	21.8	27.5	61	15.8	5	11	112	0.00	30.305 
16:50	27.5	27.5	27.5	61	15.8	3	12	90	0.00	30.306 
16:55	27.3	27.3	27.3	61	15.7	3	7	22	0.00	30.307 
17:00	27.3	27.3	27.3	63	16.4	3	9	45	0.00	30.306 
17:05	27.3	27.3	27.3	62	16.0	2	6	90	0.00	30.306 
17:10	27.2	27.2	27.2	62	15.9	2	10	45	0.00	30.308 
17:15	27.0	27.0	27.0	62	15.7	2	5	68	0.00	30.307 
17:20	26.7	26.7	26.7	62	15.5	3	7	45	0.00	30.307 
17:25	26.7	26.7	26.7	64	16.2	2	5	112	0.00	30.308 
17:30	26.4	26.4	26.4	64	15.9	2	9	112	0.00	30.307 
17:35	26.3	26.3	26.3	64	15.8	1	5	112	0.00	30.307 
17:40	26.1	26.1	26.1	65	16.0	2	6	112	0.00	30.305 
17:45	26.0	26.0	26.0	65	15.9	1	3	90	0.00	30.305 
17:50	26.0	26.0	26.0	65	15.9	2	5	45	0.00	30.305 
17:55	25.8	25.8	25.8	65	15.7	2	5	45	0.00	30.304 
18:00	25.8	25.8	25.8	65	15.7	2	9	112	0.00	30.303 
18:05	25.8	25.8	25.8	66	16.0	1	3	68	0.00	30.305 
18:10	25.7	25.7	25.7	67	16.3	2	5	90	0.00	30.303 
18:15	25.7	25.7	25.7	67	16.3	2	6	112	0.00	30.301 
18:20	25.6	25.6	25.6	67	16.2	1	6	68	0.00	30.302 
18:25	25.6	25.6	25.6	67	16.2	1	4	90	0.00	30.303 
18:30	25.6	25.6	25.6	67	16.2	1	4	68	0.00	30.307 
18:35	25.4	25.4	25.4	67	16.0	1	3	45	0.00	30.307 
18:40	25.4	25.4	25.4	65	15.3	2	5	90	0.00	30.308 
18:45	25.4	25.4	25.4	62	14.2	3	6	45	0.00	30.308 
18:50	25.4	25.4	25.4	63	14.6	1	4	112	0.00	30.308 
18:55	25.3	25.3	25.3	63	14.5	1	4	90	0.00	30.308 
19:00	25.1	25.1	25.1	64	14.7	1	7	22	0.00	30.310 
19:05	25.0	25.0	25.0	63	14.2	1	5	45	0.00	30.313 
19:10	25.0	25.0	25.0	64	14.6	1	4	112	0.00	30.314 
19:15	24.8	24.8	24.8	64	14.4	1	6	68	0.00	30.316 
19:20	24.7	24.7	24.7	64	14.3	1	3	68	0.00	30.318 
19:25	24.7	24.7	24.7	65	14.6	1	3	112	0.00	30.323 
19:30	24.5	24.5	24.5	65	14.4	1	4	135	0.00	30.325 
19:35	24.4	24.4	24.4	66	14.7	0	1	68	0.00	30.326 
19:40	24.2	24.2	24.2	66	14.5	0	3	68	0.00	30.329 
19:45	24.2	24.2	24.2	67	14.8	0	3	68	0.00	30.329 
19:50	24.1	24.1	24.1	68	15.1	0	1	22	0.00	30.329 
19:55	23.9	23.9	23.9	69	15.2	0	2	22	0.00	30.329 
20:00	23.8	23.8	23.8	69	15.1	0	1	22	0.00	30.330 
20:05	23.6	23.6	23.6	70	15.3	0	2	22	0.00	30.327 
20:10	23.5	23.5	23.5	71	15.5	0	2	22	0.00	30.328 
20:15	23.3	23.3	23.3	71	15.3	0	2	22	0.00	30.327 
20:20	23.3	23.3	23.3	72	15.6	0	1	22	0.00	30.329 
20:25	23.2	23.2	23.2	72	15.5	0	1	22	0.00	30.328 
20:30	23.0	23.0	23.0	73	15.7	0	1	22	0.00	30.327 
20:35	22.9	22.9	22.9	73	15.6	0	3	90	0.00	30.328 
20:40	22.7	22.7	22.7	73	15.4	0	2	90	0.00	30.327 
20:45	22.5	22.5	22.5	74	15.5	0	1	90	0.00	30.328 
20:50	22.5	22.5	22.5	74	15.5	0	1	90	0.00	30.329 
20:55	22.4	22.4	22.4	74	15.4	0	2	90	0.00	30.329 
21:00	22.4	22.4	22.4	75	15.7	0	0	---	0.00	30.329 
21:05	22.2	22.2	22.2	75	15.5	0	1	90	0.00	30.329 
21:10	22.1	22.1	22.1	75	15.4	0	1	90	0.00	30.329 
21:15	21.9	21.9	21.9	76	15.5	0	1	90	0.00	30.329 
21:20	21.8	21.8	21.8	76	15.4	0	1	90	0.00	30.328 
21:25	21.8	21.8	21.8	76	15.4	0	1	90	0.00	30.328 
21:30	21.6	21.6	21.6	76	15.2	0	1	90	0.00	30.328 
21:35	21.6	21.6	21.6	76	15.2	0	0	---	0.00	30.328 
21:40	21.3	21.3	21.3	76	14.9	0	0	---	0.00	30.327 
21:45	21.1	21.1	21.1	77	15.0	0	1	90	0.00	30.327 
21:50	21.0	21.0	21.0	77	14.9	0	0	---	0.00	30.326 
21:55	20.8	20.8	20.8	77	14.7	0	0	---	0.00	30.326 
22:00	20.6	20.6	20.6	78	14.8	0	0	---	0.00	30.327 
22:05	20.5	20.5	20.5	78	14.8	0	0	---	0.00	30.326 
22:10	20.3	20.3	20.3	79	14.8	0	0	---	0.00	30.325 
22:15	20.2	20.2	20.2	79	14.8	0	0	---	0.00	30.326 
22:20	19.9	19.9	19.9	79	14.5	0	0	---	0.00	30.325 
22:25	19.7	19.7	19.7	79	14.3	0	0	---	0.00	30.325 
22:30	19.5	19.5	19.5	80	14.4	0	0	---	0.00	30.326 
22:35	19.4	19.4	19.4	80	14.3	0	0	---	0.00	30.326 
22:40	19.2	19.2	19.2	80	14.1	0	0	---	0.00	30.329 
22:45	19.1	19.1	19.1	81	14.2	0	0	---	0.00	30.330 
22:50	19.1	19.1	19.1	81	14.2	0	0	---	0.00	30.330 
22:55	19.1	19.1	19.1	81	14.2	0	0	---	0.00	30.330 
23:00	18.9	18.9	18.9	81	14.1	0	0	---	0.00	30.331 
23:05	18.9	18.9	18.9	82	14.3	0	0	---	0.00	30.329 
23:10	18.8	18.8	18.8	82	14.2	0	0	---	0.00	30.328 
23:15	18.6	18.6	18.6	82	14.0	0	0	---	0.00	30.328 
23:20	18.4	18.4	18.4	82	13.8	0	0	---	0.00	30.327 
23:25	18.4	18.4	18.4	82	13.8	0	0	---	0.00	30.328 
23:30	18.4	18.4	18.4	82	13.8	0	0	---	0.00	30.329 
23:35	18.3	18.3	18.3	82	13.7	0	0	---	0.00	30.328 
23:40	18.1	18.1	18.1	82	13.5	0	0	---	0.00	30.328 
23:45	18.1	18.1	18.1	83	13.8	0	1	90	0.00	30.327 
23:50	18.0	18.0	18.0	83	13.7	0	0	---	0.00	30.328 
23:55	18.0	18.0	18.0	83	13.7	0	0	---	0.00	30.328 

CoCoRaHS
IN-AL-39
A2 Web Hosting
Creative Commons License
GoDaddy
search engine by freefind advanced

loaded 2018-11-22 06:15:39 • last modified 2010-11-18 10:43:29
Privacy PolicyDisclaimer
• wx.awcolley.com is powered by PmWiki v.2002016 •
• all content (unless otherwise noted) © 2018 A W Colley